Alpina — 9LD2091 — position and weather

sailwx.info

Track history (hours):
 
Tides and Currents Weather Stations Pressure Air Temp Water Temp Dewpoint Dewpoint Depression Visibility Wind Speed Wind Dir Waves Ship Positions

Alpina

Last reported at 2013-Dec-02 14:11 UTC. Time now 2014-Sep-03 02:05 UTC.
Position N 33°35' E 030°48'.
Warning: this ship's position is months out of date.

Length 81 m; draft 6 m.

Type: Ship (hazmat cat C). MMSI: 667312000.

Date/timePositionNaut miles runAvg speedWind from/ knotsBaromVisibWave heightAir tempDewpointWater temp
2013-Dec-02 14:11N 33°35' E 030°48'59 7.7
2013-Dec-02 06:29N 32°44' E 031°24'72 7.3
2013-Dec-01 20:33N 31°34' E 031°45'  
2013-Nov-27 15:09N 31°40' E 031°58'14 8.9
2013-Nov-27 13:32N 31°30' E 031°46'2 0.8
2013-Nov-27 10:33N 31°27' E 031°46'0 0.0
2013-Nov-27 09:33N 31°27' E 031°46'0 0.0
2013-Nov-27 08:33N 31°27' E 031°46'0 0.0
2013-Nov-27 07:33N 31°27' E 031°46'  
Track history (hours):
 
Tides and Currents Weather Stations Pressure Air Temp Water Temp Dewpoint Dewpoint Depression Visibility Wind Speed Wind Dir Waves Ship Positions

Alpina

Last reported at 2013-Dec-02 14:11 UTC. Time now 2014-Sep-03 02:05 UTC.
Position N 33°35' E 030°48'.
Warning: this ship's position is months out of date.

Length 81 m; draft 6 m.

Type: Ship (hazmat cat C). MMSI: 667312000.

Date/timePositionNaut miles runAvg speedWind from/ knotsBaromVisibWave heightAir tempDewpointWater temp
2013-Dec-02 14:11N 33°35' E 030°48'59 7.7
2013-Dec-02 06:29N 32°44' E 031°24'72 7.3
2013-Dec-01 20:33N 31°34' E 031°45'  
2013-Nov-27 15:09N 31°40' E 031°58'14 8.9
2013-Nov-27 13:32N 31°30' E 031°46'2 0.8
2013-Nov-27 10:33N 31°27' E 031°46'0 0.0
2013-Nov-27 09:33N 31°27' E 031°46'0 0.0
2013-Nov-27 08:33N 31°27' E 031°46'0 0.0
2013-Nov-27 07:33N 31°27' E 031°46'  

Dump ship's entire track history